Time,TemperatureF,DewpointF,PressureIn,WindDirection,WindDirectionDegrees,WindSpeedMPH,WindSpeedGustMPH,Humidity,HourlyPrecipIn,Conditions,Clouds,dailyrainin,SoftwareType,DateUTC
2013-06-18 00:00:00,56.0,55.0,29.89,East,91,0.0,2.0,95,0.00,,,0.66,weatherlink.com 1.10,2013-06-18 04:00:00,
2013-06-18 00:15:00,56.2,55.0,29.89,East,91,0.0,2.0,95,0.00,,,0.66,weatherlink.com 1.10,2013-06-18 04:15:00,
2013-06-18 00:30:00,56.2,55.0,29.90,East,91,0.0,3.0,95,0.00,,,0.00,weatherlink.com 1.10,2013-06-18 04:30:00,
2013-06-18 00:45:00,56.5,55.0,29.90,East,91,0.0,2.0,95,0.00,,,0.00,weatherlink.com 1.10,2013-06-18 04:45:00,
2013-06-18 01:00:00,56.7,55.0,29.90,East,91,0.0,2.0,95,0.00,,,0.00,weatherlink.com 1.10,2013-06-18 05:00:00,
2013-06-18 01:15:00,56.6,55.0,29.90,East,91,0.0,1.0,94,0.00,,,0.00,weatherlink.com 1.10,2013-06-18 05:15:00,
2013-06-18 01:30:00,56.4,55.0,29.89,East,90,0.0,2.0,94,0.00,,,0.00,weatherlink.com 1.10,2013-06-18 05:30:00,
2013-06-18 01:45:00,56.1,54.0,29.89,East,90,0.0,3.0,93,0.00,,,0.00,weatherlink.com 1.10,2013-06-18 05:45:00,
2013-06-18 02:00:00,55.3,54.0,29.89,ESE,123,0.0,3.0,94,0.00,,,0.00,weatherlink.com 1.10,2013-06-18 06:00:00,
2013-06-18 02:15:00,55.3,54.0,29.89,ESE,123,0.0,0.0,95,0.00,,,0.00,weatherlink.com 1.10,2013-06-18 06:15:00,
2013-06-18 02:30:00,54.6,53.0,29.89,ESE,123,0.0,0.0,94,0.00,,,0.00,weatherlink.com 1.10,2013-06-18 06:30:00,
2013-06-18 02:45:00,54.0,52.0,29.88,ESE,123,0.0,2.0,94,0.00,,,0.00,weatherlink.com 1.10,2013-06-18 06:45:00,
2013-06-18 03:00:00,53.7,53.0,29.88,ESE,123,0.0,0.0,96,0.00,,,0.00,weatherlink.com 1.10,2013-06-18 07:00:00,
2013-06-18 03:15:00,53.6,52.0,29.89,ESE,123,0.0,0.0,95,0.00,,,0.00,weatherlink.com 1.10,2013-06-18 07:15:00,
2013-06-18 03:30:00,53.2,52.0,29.88,ESE,123,0.0,0.0,96,0.00,,,0.00,weatherlink.com 1.10,2013-06-18 07:30:00,
2013-06-18 03:45:00,53.1,52.0,29.88,ESE,123,0.0,0.0,96,0.00,,,0.00,weatherlink.com 1.10,2013-06-18 07:45:00,
2013-06-18 04:00:00,53.3,53.0,29.88,ESE,123,0.0,0.0,97,0.00,,,0.00,weatherlink.com 1.10,2013-06-18 08:00:00,
2013-06-18 04:15:00,53.7,53.0,29.87,ESE,123,0.0,0.0,97,0.00,,,0.00,weatherlink.com 1.10,2013-06-18 08:15:00,
2013-06-18 04:30:00,54.2,53.0,29.86,ESE,123,0.0,3.0,97,0.00,,,0.00,weatherlink.com 1.10,2013-06-18 08:30:00,
2013-06-18 04:45:00,54.4,54.0,29.88,ESE,116,0.0,4.0,97,0.00,,,0.00,weatherlink.com 1.10,2013-06-18 08:45:00,
2013-06-18 05:00:00,54.2,53.0,29.88,ESE,116,0.0,0.0,97,0.02,,,0.02,weatherlink.com 1.10,2013-06-18 09:00:00,
2013-06-18 05:15:00,54.3,54.0,29.88,ESE,116,0.0,1.0,97,0.04,,,0.04,weatherlink.com 1.10,2013-06-18 09:15:00,
2013-06-18 05:30:00,54.6,54.0,29.89,ESE,116,0.0,1.0,97,0.04,,,0.04,weatherlink.com 1.10,2013-06-18 09:30:00,
2013-06-18 05:45:00,54.6,54.0,29.89,ESE,116,0.0,0.0,97,0.05,,,0.05,weatherlink.com 1.10,2013-06-18 09:45:00,
2013-06-18 06:00:00,54.6,54.0,29.88,ESE,117,0.0,3.0,97,0.03,,,0.05,weatherlink.com 1.10,2013-06-18 10:00:00,
2013-06-18 06:15:00,54.7,54.0,29.89,ESE,117,0.0,0.0,97,0.01,,,0.05,weatherlink.com 1.10,2013-06-18 10:15:00,
2013-06-18 06:30:00,54.8,54.0,29.89,ESE,116,0.0,1.0,97,0.03,,,0.07,weatherlink.com 1.10,2013-06-18 10:30:00,
2013-06-18 06:45:00,54.8,54.0,29.89,ESE,116,0.0,3.0,97,0.02,,,0.07,weatherlink.com 1.10,2013-06-18 10:45:00,
2013-06-18 07:00:00,55.0,54.0,29.89,South,188,0.0,3.0,97,0.02,,,0.07,weatherlink.com 1.10,2013-06-18 11:00:00,
2013-06-18 07:15:00,55.1,54.0,29.89,ENE,77,0.0,5.0,97,0.02,,,0.07,weatherlink.com 1.10,2013-06-18 11:15:00,
2013-06-18 07:30:00,55.2,54.0,29.90,NNE,32,0.0,4.0,97,0.00,,,0.07,weatherlink.com 1.10,2013-06-18 11:30:00,
2013-06-18 07:45:00,55.6,55.0,29.90,West,278,0.0,2.0,97,0.00,,,0.07,weatherlink.com 1.10,2013-06-18 11:45:00,
2013-06-18 08:00:00,56.0,56.0,29.90,SE,125,0.0,1.0,98,0.00,,,0.07,weatherlink.com 1.10,2013-06-18 12:00:00,
2013-06-18 08:15:00,56.6,56.0,29.91,East,85,0.0,3.0,98,0.00,,,0.07,weatherlink.com 1.10,2013-06-18 12:15:00,
2013-06-18 08:31:00,57.1,57.0,29.92,ENE,71,0.0,6.0,98,0.00,,,0.07,weatherlink.com 1.10,2013-06-18 12:31:00,
2013-06-18 08:46:00,57.3,57.0,29.92,WSW,252,0.0,8.0,97,0.00,,,0.07,weatherlink.com 1.10,2013-06-18 12:46:00,
2013-06-18 09:01:00,57.3,56.0,29.93,ENE,59,0.0,9.0,94,0.00,,,0.07,weatherlink.com 1.10,2013-06-18 13:01:00,
2013-06-18 09:16:00,57.4,55.0,29.92,ENE,67,0.0,4.0,93,0.00,,,0.07,weatherlink.com 1.10,2013-06-18 13:16:00,
2013-06-18 09:31:00,57.3,55.0,29.94,North,360,0.0,8.0,91,0.01,,,0.08,weatherlink.com 1.10,2013-06-18 13:31:00,
2013-06-18 09:46:00,56.6,54.0,29.94,NNE,28,3.0,4.0,91,0.03,,,0.10,weatherlink.com 1.10,2013-06-18 13:46:00,
2013-06-18 10:01:00,56.0,54.0,29.94,NE,40,7.0,9.0,91,0.03,,,0.10,weatherlink.com 1.10,2013-06-18 14:01:00,
2013-06-18 10:16:00,56.0,54.0,29.94,NNE,33,0.0,7.0,91,0.03,,,0.10,weatherlink.com 1.10,2013-06-18 14:16:00,
2013-06-18 10:31:00,56.1,54.0,29.93,NE,39,1.0,6.0,92,0.02,,,0.10,weatherlink.com 1.10,2013-06-18 14:31:00,
2013-06-18 10:46:00,56.2,54.0,29.93,ENE,65,0.0,5.0,91,0.00,,,0.10,weatherlink.com 1.10,2013-06-18 14:46:00,
2013-06-18 11:01:00,56.4,54.0,29.94,NE,39,0.0,1.0,91,0.00,,,0.10,weatherlink.com 1.10,2013-06-18 15:01:00,
2013-06-18 11:16:00,56.5,54.0,29.94,ENE,65,0.0,1.0,91,0.02,,,0.12,weatherlink.com 1.10,2013-06-18 15:16:00,
2013-06-18 11:31:00,56.8,55.0,29.94,ENE,65,1.0,2.0,92,0.02,,,0.12,weatherlink.com 1.10,2013-06-18 15:31:00,
2013-06-18 11:46:00,57.2,55.0,29.94,NE,51,0.0,4.0,91,0.02,,,0.12,weatherlink.com 1.10,2013-06-18 15:46:00,
2013-06-18 12:01:00,57.4,55.0,29.94,NNE,19,0.0,5.0,91,0.02,,,0.12,weatherlink.com 1.10,2013-06-18 16:01:00,
2013-06-18 12:16:00,57.7,55.0,29.93,SSW,206,0.0,4.0,91,0.00,,,0.12,weatherlink.com 1.10,2013-06-18 16:16:00,
2013-06-18 12:31:00,58.1,56.0,29.93,East,95,0.0,2.0,92,0.00,,,0.12,weatherlink.com 1.10,2013-06-18 16:31:00,
2013-06-18 12:46:00,58.7,56.0,29.94,NNE,24,0.0,4.0,90,0.00,,,0.12,weatherlink.com 1.10,2013-06-18 16:46:00,
2013-06-18 13:01:00,59.0,56.0,29.94,NNE,30,0.0,2.0,90,0.00,,,0.12,weatherlink.com 1.10,2013-06-18 17:01:00,
2013-06-18 13:16:00,59.8,57.0,29.94,NNE,30,0.0,3.0,90,0.00,,,0.12,weatherlink.com 1.10,2013-06-18 17:16:00,
2013-06-18 13:31:00,60.1,57.0,29.93,NE,36,5.0,7.0,89,0.00,,,0.12,weatherlink.com 1.10,2013-06-18 17:31:00,
2013-06-18 13:46:00,61.3,57.0,29.93,NE,36,3.0,7.0,84,0.00,,,0.12,weatherlink.com 1.10,2013-06-18 17:46:00,
2013-06-18 14:01:00,62.9,58.0,29.93,North,350,1.0,10.0,84,0.00,,,0.12,weatherlink.com 1.10,2013-06-18 18:01:00,
2013-06-18 14:16:00,63.5,58.0,29.93,NNE,18,6.0,8.0,81,0.00,,,0.12,weatherlink.com 1.10,2013-06-18 18:16:00,
2013-06-18 14:31:00,64.7,55.0,29.92,NNE,29,4.0,7.0,71,0.00,,,0.12,weatherlink.com 1.10,2013-06-18 18:31:00,
2013-06-18 14:46:00,64.4,54.0,29.92,NNW,336,0.0,5.0,69,0.00,,,0.12,weatherlink.com 1.10,2013-06-18 18:46:00,
2013-06-18 15:01:00,65.7,57.0,29.92,NE,35,0.0,3.0,74,0.00,,,0.12,weatherlink.com 1.10,2013-06-18 19:01:00,
2013-06-18 15:16:00,66.5,56.0,29.91,NNW,329,0.0,7.0,70,0.00,,,0.12,weatherlink.com 1.10,2013-06-18 19:16:00,
2013-06-18 15:31:00,67.0,56.0,29.91,NNE,33,0.0,5.0,68,0.00,,,0.12,weatherlink.com 1.10,2013-06-18 19:31:00,
2013-06-18 15:46:00,67.8,56.0,29.91,NNE,16,2.0,8.0,67,0.00,,,0.12,weatherlink.com 1.10,2013-06-18 19:46:00,
2013-06-18 16:01:00,68.1,58.0,29.90,NE,39,3.0,10.0,70,0.00,,,0.12,weatherlink.com 1.10,2013-06-18 20:01:00,
2013-06-18 16:17:00,69.0,58.0,29.91,NE,41,0.0,4.0,67,0.00,,,0.12,weatherlink.com 1.10,2013-06-18 20:17:00,
2013-06-18 16:32:00,70.3,57.0,29.90,NNE,29,2.0,6.0,63,0.00,,,0.12,weatherlink.com 1.10,2013-06-18 20:32:00,
2013-06-18 16:47:00,69.1,55.0,29.89,NNE,14,0.0,0.0,61,0.00,,,0.12,weatherlink.com 1.10,2013-06-18 20:47:00,
2013-06-18 17:02:00,69.6,53.0,29.89,SSE,154,0.0,1.0,56,0.00,,,0.12,weatherlink.com 1.10,2013-06-18 21:02:00,
2013-06-18 17:17:00,69.4,53.0,29.89,SSE,154,0.0,1.0,57,0.00,,,0.12,weatherlink.com 1.10,2013-06-18 21:17:00,
2013-06-18 17:32:00,71.0,54.0,29.89,NNE,19,0.0,4.0,55,0.00,,,0.12,weatherlink.com 1.10,2013-06-18 21:32:00,
2013-06-18 17:47:00,71.3,51.0,29.89,ENE,57,0.0,5.0,49,0.00,,,0.12,weatherlink.com 1.10,2013-06-18 21:47:00,
2013-06-18 18:02:00,71.2,55.0,29.89,NE,56,0.0,1.0,56,0.00,,,0.12,weatherlink.com 1.10,2013-06-18 22:02:00,
2013-06-18 18:17:00,71.5,52.0,29.89,East,93,0.0,1.0,50,0.00,,,0.12,weatherlink.com 1.10,2013-06-18 22:17:00,
2013-06-18 18:32:00,71.4,55.0,29.89,ENE,66,0.0,3.0,56,0.00,,,0.12,weatherlink.com 1.10,2013-06-18 22:32:00,
2013-06-18 18:47:00,69.4,54.0,29.89,NNE,30,6.0,6.0,59,0.00,,,0.12,weatherlink.com 1.10,2013-06-18 22:47:00,
2013-06-18 19:02:00,68.2,55.0,29.89,NNE,13,0.0,1.0,64,0.00,,,0.12,weatherlink.com 1.10,2013-06-18 23:02:00,
2013-06-18 19:17:00,66.8,54.0,29.90,NNE,17,0.0,5.0,64,0.00,,,0.12,weatherlink.com 1.10,2013-06-18 23:17:00,
2013-06-18 19:32:00,65.5,53.0,29.91,NNE,32,0.0,1.0,64,0.00,,,0.12,weatherlink.com 1.10,2013-06-18 23:32:00,
2013-06-18 19:47:00,64.3,52.0,29.91,North,5,0.0,1.0,65,0.00,,,0.12,weatherlink.com 1.10,2013-06-18 23:47:00,
2013-06-18 20:02:00,63.2,53.0,29.92,North,5,0.0,1.0,69,0.00,,,0.12,weatherlink.com 1.10,2013-06-19 00:02:00,
2013-06-18 20:17:00,62.0,53.0,29.92,North,5,0.0,1.0,72,0.00,,,0.12,weatherlink.com 1.10,2013-06-19 00:17:00,
2013-06-18 20:32:00,60.3,52.0,29.92,North,5,0.0,0.0,75,0.00,,,0.12,weatherlink.com 1.10,2013-06-19 00:32:00,
2013-06-18 20:47:00,58.7,52.0,29.92,North,5,0.0,0.0,77,0.00,,,0.12,weatherlink.com 1.10,2013-06-19 00:47:00,
2013-06-18 21:02:00,57.6,51.0,29.92,North,5,0.0,1.0,79,0.00,,,0.12,weatherlink.com 1.10,2013-06-19 01:02:00,
2013-06-18 21:17:00,56.5,49.0,29.93,North,5,0.0,1.0,77,0.00,,,0.12,weatherlink.com 1.10,2013-06-19 01:17:00,
2013-06-18 21:32:00,54.4,49.0,29.93,NNE,18,0.0,1.0,81,0.00,,,0.12,weatherlink.com 1.10,2013-06-19 01:32:00,
2013-06-18 21:47:00,54.3,48.0,29.94,NNE,18,0.0,0.0,80,0.00,,,0.12,weatherlink.com 1.10,2013-06-19 01:47:00,
2013-06-18 22:01:00,54.2,47.0,29.95,NNE,18,0.0,1.0,78,0.00,,,0.12,weatherlink.com 1.10,2013-06-19 02:01:00,
2013-06-18 22:16:00,56.0,47.0,29.96,NE,55,2.0,6.0,73,0.00,,,0.12,weatherlink.com 1.10,2013-06-19 02:16:00,
2013-06-18 22:31:00,57.1,47.0,29.96,NE,36,0.0,6.0,70,0.00,,,0.12,weatherlink.com 1.10,2013-06-19 02:31:00,
2013-06-18 22:46:00,56.3,47.0,29.96,NE,38,0.0,0.0,71,0.00,,,0.12,weatherlink.com 1.10,2013-06-19 02:46:00,
2013-06-18 23:01:00,55.9,47.0,29.97,East,101,0.0,5.0,72,0.00,,,0.12,weatherlink.com 1.10,2013-06-19 03:01:00,
2013-06-18 23:16:00,55.7,47.0,29.97,NE,50,0.0,4.0,73,0.00,,,0.12,weatherlink.com 1.10,2013-06-19 03:16:00,
2013-06-18 23:31:00,55.1,47.0,29.97,NE,52,0.0,2.0,75,0.00,,,0.12,weatherlink.com 1.10,2013-06-19 03:31:00,
2013-06-18 23:46:00,54.2,47.0,29.98,NE,52,0.0,0.0,78,0.00,,,0.12,weatherlink.com 1.10,2013-06-19 03:46:00,